sensor_id;sensor_type;location;lat;lon;timestamp;temperature;humidity
66102;HTU21D;52883;51.094;5.880;2022-09-21T00:00:52;6.10;118.99
66102;HTU21D;52883;51.094;5.880;2022-09-21T00:03:19;6.16;118.99
66102;HTU21D;52883;51.094;5.880;2022-09-21T00:05:45;6.19;118.99
66102;HTU21D;52883;51.094;5.880;2022-09-21T00:08:13;6.05;118.99
66102;HTU21D;52883;51.094;5.880;2022-09-21T00:10:39;5.86;118.99
66102;HTU21D;52883;51.094;5.880;2022-09-21T00:13:05;5.66;118.99
66102;HTU21D;52883;51.094;5.880;2022-09-21T00:15:33;5.54;118.99
66102;HTU21D;52883;51.094;5.880;2022-09-21T00:17:59;5.41;118.99
66102;HTU21D;52883;51.094;5.880;2022-09-21T00:20:27;5.31;118.99
66102;HTU21D;52883;51.094;5.880;2022-09-21T00:22:53;5.24;118.99
66102;HTU21D;52883;51.094;5.880;2022-09-21T00:25:19;5.16;118.99
66102;HTU21D;52883;51.094;5.880;2022-09-21T00:27:45;5.10;118.99
66102;HTU21D;52883;51.094;5.880;2022-09-21T00:30:14;5.05;118.99
66102;HTU21D;52883;51.094;5.880;2022-09-21T00:32:39;5.03;118.99
66102;HTU21D;52883;51.094;5.880;2022-09-21T00:35:05;4.98;118.99
66102;HTU21D;52883;51.094;5.880;2022-09-21T00:37:32;4.94;118.99
66102;HTU21D;52883;51.094;5.880;2022-09-21T00:39:58;5.11;118.99
66102;HTU21D;52883;51.094;5.880;2022-09-21T00:42:29;5.30;118.99
66102;HTU21D;52883;51.094;5.880;2022-09-21T00:44:56;5.36;118.99
66102;HTU21D;52883;51.094;5.880;2022-09-21T00:47:39;5.24;118.99
66102;HTU21D;52883;51.094;5.880;2022-09-21T00:50:09;5.03;118.99
66102;HTU21D;52883;51.094;5.880;2022-09-21T00:52:43;4.88;118.99
66102;HTU21D;52883;51.094;5.880;2022-09-21T00:55:12;4.83;118.99
66102;HTU21D;52883;51.094;5.880;2022-09-21T00:57:40;4.83;118.99
66102;HTU21D;52883;51.094;5.880;2022-09-21T01:00:08;4.80;118.99
66102;HTU21D;52883;51.094;5.880;2022-09-21T01:02:37;4.74;118.99
66102;HTU21D;52883;51.094;5.880;2022-09-21T01:05:07;4.75;118.99
66102;HTU21D;52883;51.094;5.880;2022-09-21T01:07:37;4.77;118.99
66102;HTU21D;52883;51.094;5.880;2022-09-21T01:10:09;4.83;118.99
66102;HTU21D;52883;51.094;5.880;2022-09-21T01:12:59;4.86;118.99
66102;HTU21D;52883;51.094;5.880;2022-09-21T01:18:29;5.28;118.99
66102;HTU21D;52883;51.094;5.880;2022-09-21T01:32:04;5.02;118.99
66102;HTU21D;52883;51.094;5.880;2022-09-21T01:37:21;5.30;118.99
66102;HTU21D;52883;51.094;5.880;2022-09-21T01:39:53;5.30;118.99
66102;HTU21D;52883;51.094;5.880;2022-09-21T01:42:24;5.18;118.99
66102;HTU21D;52883;51.094;5.880;2022-09-21T01:44:56;5.10;118.99
66102;HTU21D;52883;51.094;5.880;2022-09-21T01:47:25;4.91;118.99
66102;HTU21D;52883;51.094;5.880;2022-09-21T01:49:55;4.71;118.99
66102;HTU21D;52883;51.094;5.880;2022-09-21T01:52:44;4.62;118.99
66102;HTU21D;52883;51.094;5.880;2022-09-21T01:55:24;4.60;118.99
66102;HTU21D;52883;51.094;5.880;2022-09-21T02:00:31;4.42;118.99
66102;HTU21D;52883;51.094;5.880;2022-09-21T02:03:07;4.39;118.99
66102;HTU21D;52883;51.094;5.880;2022-09-21T02:05:34;4.36;118.99
66102;HTU21D;52883;51.094;5.880;2022-09-21T02:08:00;4.27;118.99
66102;HTU21D;52883;51.094;5.880;2022-09-21T02:10:35;4.35;118.99
66102;HTU21D;52883;51.094;5.880;2022-09-21T02:13:04;4.28;118.99
66102;HTU21D;52883;51.094;5.880;2022-09-21T02:19:13;4.45;118.99
66102;HTU21D;52883;51.094;5.880;2022-09-21T02:22:01;4.37;118.99
66102;HTU21D;52883;51.094;5.880;2022-09-21T02:24:52;4.49;118.99
66102;HTU21D;52883;51.094;5.880;2022-09-21T02:27:46;4.72;118.99
66102;HTU21D;52883;51.094;5.880;2022-09-21T02:30:22;4.77;118.99
66102;HTU21D;52883;51.094;5.880;2022-09-21T02:33:11;4.58;118.99
66102;HTU21D;52883;51.094;5.880;2022-09-21T02:38:40;4.24;118.99
66102;HTU21D;52883;51.094;5.880;2022-09-21T02:41:18;4.33;118.99
66102;HTU21D;52883;51.094;5.880;2022-09-21T02:46:40;4.31;118.99
66102;HTU21D;52883;51.094;5.880;2022-09-21T02:49:53;4.52;118.99
66102;HTU21D;52883;51.094;5.880;2022-09-21T02:52:06;4.71;118.99
66102;HTU21D;52883;51.094;5.880;2022-09-21T02:54:35;4.64;118.99
66102;HTU21D;52883;51.094;5.880;2022-09-21T02:57:02;4.54;118.99
66102;HTU21D;52883;51.094;5.880;2022-09-21T02:59:28;4.49;118.99
66102;HTU21D;52883;51.094;5.880;2022-09-21T03:01:54;4.43;118.99
66102;HTU21D;52883;51.094;5.880;2022-09-21T03:04:23;4.38;118.99
66102;HTU21D;52883;51.094;5.880;2022-09-21T03:06:49;4.37;118.99
66102;HTU21D;52883;51.094;5.880;2022-09-21T03:09:14;4.47;118.99
66102;HTU21D;52883;51.094;5.880;2022-09-21T03:11:41;4.72;118.99
66102;HTU21D;52883;51.094;5.880;2022-09-21T03:14:07;4.90;118.99
66102;HTU21D;52883;51.094;5.880;2022-09-21T03:16:34;4.96;118.99
66102;HTU21D;52883;51.094;5.880;2022-09-21T03:19:00;4.80;118.99
66102;HTU21D;52883;51.094;5.880;2022-09-21T03:21:25;4.64;118.99
66102;HTU21D;52883;51.094;5.880;2022-09-21T03:23:51;4.52;118.99
66102;HTU21D;52883;51.094;5.880;2022-09-21T03:26:17;4.43;118.99
66102;HTU21D;52883;51.094;5.880;2022-09-21T03:28:50;4.36;118.99
66102;HTU21D;52883;51.094;5.880;2022-09-21T03:31:19;4.38;118.99
66102;HTU21D;52883;51.094;5.880;2022-09-21T03:33:45;4.42;118.99
66102;HTU21D;52883;51.094;5.880;2022-09-21T03:36:11;4.48;118.99
66102;HTU21D;52883;51.094;5.880;2022-09-21T03:38:38;4.61;118.99
66102;HTU21D;52883;51.094;5.880;2022-09-21T03:41:04;4.68;118.99
66102;HTU21D;52883;51.094;5.880;2022-09-21T03:43:30;4.62;118.99
66102;HTU21D;52883;51.094;5.880;2022-09-21T03:45:55;4.52;118.99
66102;HTU21D;52883;51.094;5.880;2022-09-21T03:48:22;4.41;118.99
66102;HTU21D;52883;51.094;5.880;2022-09-21T03:50:48;4.38;118.99
66102;HTU21D;52883;51.094;5.880;2022-09-21T03:53:14;4.52;118.99
66102;HTU21D;52883;51.094;5.880;2022-09-21T03:55:40;4.60;118.99
66102;HTU21D;52883;51.094;5.880;2022-09-21T03:58:06;4.65;118.99
66102;HTU21D;52883;51.094;5.880;2022-09-21T04:00:32;4.69;118.99
66102;HTU21D;52883;51.094;5.880;2022-09-21T04:02:58;4.73;118.99
66102;HTU21D;52883;51.094;5.880;2022-09-21T04:05:24;4.81;118.99
66102;HTU21D;52883;51.094;5.880;2022-09-21T04:07:50;4.90;118.99
66102;HTU21D;52883;51.094;5.880;2022-09-21T04:10:19;4.91;118.99
66102;HTU21D;52883;51.094;5.880;2022-09-21T04:12:46;4.88;118.99
66102;HTU21D;52883;51.094;5.880;2022-09-21T04:15:17;4.86;118.99
66102;HTU21D;52883;51.094;5.880;2022-09-21T04:17:46;4.86;118.99
66102;HTU21D;52883;51.094;5.880;2022-09-21T04:20:15;4.80;118.99
66102;HTU21D;52883;51.094;5.880;2022-09-21T04:22:41;4.62;118.99
66102;HTU21D;52883;51.094;5.880;2022-09-21T04:25:06;4.46;118.99
66102;HTU21D;52883;51.094;5.880;2022-09-21T04:27:32;4.36;118.99
66102;HTU21D;52883;51.094;5.880;2022-09-21T04:29:58;4.41;118.99
66102;HTU21D;52883;51.094;5.880;2022-09-21T04:32:24;4.41;118.99
66102;HTU21D;52883;51.094;5.880;2022-09-21T04:34:50;4.38;118.99
66102;HTU21D;52883;51.094;5.880;2022-09-21T04:37:16;4.29;118.99
66102;HTU21D;52883;51.094;5.880;2022-09-21T04:39:41;4.33;118.99
66102;HTU21D;52883;51.094;5.880;2022-09-21T04:42:09;4.44;118.99
66102;HTU21D;52883;51.094;5.880;2022-09-21T04:44:34;4.43;118.99
66102;HTU21D;52883;51.094;5.880;2022-09-21T04:47:00;4.56;118.99
66102;HTU21D;52883;51.094;5.880;2022-09-21T04:49:26;4.48;118.99
66102;HTU21D;52883;51.094;5.880;2022-09-21T04:51:51;4.42;118.99
66102;HTU21D;52883;51.094;5.880;2022-09-21T04:54:17;4.29;118.99
66102;HTU21D;52883;51.094;5.880;2022-09-21T04:56:42;4.08;118.99
66102;HTU21D;52883;51.094;5.880;2022-09-21T04:59:08;3.88;118.99
66102;HTU21D;52883;51.094;5.880;2022-09-21T05:01:34;3.78;118.99
66102;HTU21D;52883;51.094;5.880;2022-09-21T05:03:59;3.67;118.99
66102;HTU21D;52883;51.094;5.880;2022-09-21T05:06:32;3.57;118.99
66102;HTU21D;52883;51.094;5.880;2022-09-21T05:08:58;3.54;118.99
66102;HTU21D;52883;51.094;5.880;2022-09-21T05:11:42;3.48;118.99
66102;HTU21D;52883;51.094;5.880;2022-09-21T05:14:09;3.39;118.99
66102;HTU21D;52883;51.094;5.880;2022-09-21T05:16:34;3.35;118.99
66102;HTU21D;52883;51.094;5.880;2022-09-21T05:19:00;3.46;118.99
66102;HTU21D;52883;51.094;5.880;2022-09-21T05:21:26;3.78;118.99
66102;HTU21D;52883;51.094;5.880;2022-09-21T05:23:53;4.01;118.99
66102;HTU21D;52883;51.094;5.880;2022-09-21T05:26:19;4.15;118.99
66102;HTU21D;52883;51.094;5.880;2022-09-21T05:28:44;4.29;118.99
66102;HTU21D;52883;51.094;5.880;2022-09-21T05:33:52;4.42;118.99
66102;HTU21D;52883;51.094;5.880;2022-09-21T05:38:59;4.46;118.99
66102;HTU21D;52883;51.094;5.880;2022-09-21T05:41:25;4.51;118.99
66102;HTU21D;52883;51.094;5.880;2022-09-21T05:43:51;4.59;118.99
66102;HTU21D;52883;51.094;5.880;2022-09-21T05:54:41;5.32;118.99
66102;HTU21D;52883;51.094;5.880;2022-09-21T06:00:15;5.76;118.99
66102;HTU21D;52883;51.094;5.880;2022-09-21T06:05:18;6.05;118.99
66102;HTU21D;52883;51.094;5.880;2022-09-21T06:07:43;6.14;118.99
66102;HTU21D;52883;51.094;5.880;2022-09-21T06:10:11;6.17;118.99
66102;HTU21D;52883;51.094;5.880;2022-09-21T06:12:37;6.20;118.99
66102;HTU21D;52883;51.094;5.880;2022-09-21T06:15:04;6.26;118.99
66102;HTU21D;52883;51.094;5.880;2022-09-21T06:17:32;6.28;118.99
66102;HTU21D;52883;51.094;5.880;2022-09-21T06:19:57;6.34;118.99
66102;HTU21D;52883;51.094;5.880;2022-09-21T06:22:23;6.43;118.99
66102;HTU21D;52883;51.094;5.880;2022-09-21T06:24:49;6.63;118.99
66102;HTU21D;52883;51.094;5.880;2022-09-21T06:27:15;6.96;118.99
66102;HTU21D;52883;51.094;5.880;2022-09-21T06:29:40;7.30;118.99
66102;HTU21D;52883;51.094;5.880;2022-09-21T06:32:06;7.61;118.99
66102;HTU21D;52883;51.094;5.880;2022-09-21T06:34:31;7.92;118.99
66102;HTU21D;52883;51.094;5.880;2022-09-21T06:36:57;8.27;118.99
66102;HTU21D;52883;51.094;5.880;2022-09-21T06:39:22;8.59;118.99
66102;HTU21D;52883;51.094;5.880;2022-09-21T06:41:48;8.86;118.99
66102;HTU21D;52883;51.094;5.880;2022-09-21T06:44:14;9.15;118.99
66102;HTU21D;52883;51.094;5.880;2022-09-21T06:46:40;9.45;118.99
66102;HTU21D;52883;51.094;5.880;2022-09-21T06:49:06;9.60;118.99
66102;HTU21D;52883;51.094;5.880;2022-09-21T06:51:31;9.70;118.99
66102;HTU21D;52883;51.094;5.880;2022-09-21T06:53:57;9.77;118.99
66102;HTU21D;52883;51.094;5.880;2022-09-21T06:56:24;9.76;118.99
66102;HTU21D;52883;51.094;5.880;2022-09-21T06:58:51;9.81;118.99
66102;HTU21D;52883;51.094;5.880;2022-09-21T07:01:17;9.76;118.99
66102;HTU21D;52883;51.094;5.880;2022-09-21T07:03:44;9.71;118.99
66102;HTU21D;52883;51.094;5.880;2022-09-21T07:06:12;9.72;118.99
66102;HTU21D;52883;51.094;5.880;2022-09-21T07:08:42;9.72;118.99
66102;HTU21D;52883;51.094;5.880;2022-09-21T07:11:09;9.79;118.99
66102;HTU21D;52883;51.094;5.880;2022-09-21T07:13:35;9.85;118.99
66102;HTU21D;52883;51.094;5.880;2022-09-21T07:16:08;9.82;118.99
66102;HTU21D;52883;51.094;5.880;2022-09-21T07:18:35;9.81;118.99
66102;HTU21D;52883;51.094;5.880;2022-09-21T07:21:04;9.79;118.99
66102;HTU21D;52883;51.094;5.880;2022-09-21T07:23:31;9.77;118.99
66102;HTU21D;52883;51.094;5.880;2022-09-21T07:26:01;9.81;118.99
66102;HTU21D;52883;51.094;5.880;2022-09-21T07:28:26;9.81;118.99
66102;HTU21D;52883;51.094;5.880;2022-09-21T07:30:52;9.77;118.99
66102;HTU21D;52883;51.094;5.880;2022-09-21T07:33:17;9.75;118.99
66102;HTU21D;52883;51.094;5.880;2022-09-21T07:35:52;9.90;118.99
66102;HTU21D;52883;51.094;5.880;2022-09-21T07:38:20;10.08;118.99
66102;HTU21D;52883;51.094;5.880;2022-09-21T07:40:47;10.43;118.99
66102;HTU21D;52883;51.094;5.880;2022-09-21T07:43:13;10.67;118.99
66102;HTU21D;52883;51.094;5.880;2022-09-21T07:45:38;10.99;118.99
66102;HTU21D;52883;51.094;5.880;2022-09-21T07:48:05;11.28;118.99
66102;HTU21D;52883;51.094;5.880;2022-09-21T07:50:32;11.59;118.99
66102;HTU21D;52883;51.094;5.880;2022-09-21T07:53:01;11.75;118.99
66102;HTU21D;52883;51.094;5.880;2022-09-21T07:55:28;11.81;118.99
66102;HTU21D;52883;51.094;5.880;2022-09-21T07:57:53;11.90;118.99
66102;HTU21D;52883;51.094;5.880;2022-09-21T08:00:39;12.05;118.99
66102;HTU21D;52883;51.094;5.880;2022-09-21T08:03:08;12.13;118.99
66102;HTU21D;52883;51.094;5.880;2022-09-21T08:05:34;12.19;118.99
66102;HTU21D;52883;51.094;5.880;2022-09-21T08:07:59;12.35;118.99
66102;HTU21D;52883;51.094;5.880;2022-09-21T08:10:25;12.58;118.99
66102;HTU21D;52883;51.094;5.880;2022-09-21T08:12:55;12.71;118.99
66102;HTU21D;52883;51.094;5.880;2022-09-21T08:15:21;12.62;118.99
66102;HTU21D;52883;51.094;5.880;2022-09-21T08:17:47;12.60;118.99
66102;HTU21D;52883;51.094;5.880;2022-09-21T08:20:13;12.72;118.99
66102;HTU21D;52883;51.094;5.880;2022-09-21T08:22:39;12.80;118.99
66102;HTU21D;52883;51.094;5.880;2022-09-21T08:25:05;12.80;118.99
66102;HTU21D;52883;51.094;5.880;2022-09-21T08:27:31;12.59;118.99
66102;HTU21D;52883;51.094;5.880;2022-09-21T08:29:56;12.30;118.99
66102;HTU21D;52883;51.094;5.880;2022-09-21T08:32:22;12.15;118.99
66102;HTU21D;52883;51.094;5.880;2022-09-21T08:34:48;12.16;118.99
66102;HTU21D;52883;51.094;5.880;2022-09-21T08:37:14;12.20;118.99
66102;HTU21D;52883;51.094;5.880;2022-09-21T08:39:40;12.26;118.99
66102;HTU21D;52883;51.094;5.880;2022-09-21T08:42:13;12.40;118.99
66102;HTU21D;52883;51.094;5.880;2022-09-21T08:44:48;12.48;118.99
66102;HTU21D;52883;51.094;5.880;2022-09-21T08:53:13;12.86;118.99
66102;HTU21D;52883;51.094;5.880;2022-09-21T08:55:41;12.87;118.99
66102;HTU21D;52883;51.094;5.880;2022-09-21T08:58:22;12.87;118.99
66102;HTU21D;52883;51.094;5.880;2022-09-21T09:11:50;13.90;118.99
66102;HTU21D;52883;51.094;5.880;2022-09-21T09:20:22;14.27;118.99
66102;HTU21D;52883;51.094;5.880;2022-09-21T09:23:11;14.88;118.99
66102;HTU21D;52883;51.094;5.880;2022-09-21T09:25:41;15.45;118.99
66102;HTU21D;52883;51.094;5.880;2022-09-21T09:31:24;16.62;118.99
66102;HTU21D;52883;51.094;5.880;2022-09-21T09:34:00;16.95;118.99
66102;HTU21D;52883;51.094;5.880;2022-09-21T09:36:32;17.28;118.99
66102;HTU21D;52883;51.094;5.880;2022-09-21T09:39:11;17.45;118.99
66102;HTU21D;52883;51.094;5.880;2022-09-21T09:41:53;17.63;118.99
66102;HTU21D;52883;51.094;5.880;2022-09-21T09:44:50;17.74;118.99
66102;HTU21D;52883;51.094;5.880;2022-09-21T09:47:49;17.89;118.99
66102;HTU21D;52883;51.094;5.880;2022-09-21T09:50:26;18.22;118.99
66102;HTU21D;52883;51.094;5.880;2022-09-21T09:53:04;18.43;118.99
66102;HTU21D;52883;51.094;5.880;2022-09-21T09:55:40;18.74;118.99
66102;HTU21D;52883;51.094;5.880;2022-09-21T09:58:51;19.03;118.99
66102;HTU21D;52883;51.094;5.880;2022-09-21T10:01:46;19.36;118.99
66102;HTU21D;52883;51.094;5.880;2022-09-21T10:04:23;19.60;118.99
66102;HTU21D;52883;51.094;5.880;2022-09-21T10:06:48;19.82;118.99
66102;HTU21D;52883;51.094;5.880;2022-09-21T10:11:52;19.99;118.99
66102;HTU21D;52883;51.094;5.880;2022-09-21T10:14:21;20.46;118.99
66102;HTU21D;52883;51.094;5.880;2022-09-21T10:16:50;20.93;118.99
66102;HTU21D;52883;51.094;5.880;2022-09-21T10:19:24;21.24;118.99
66102;HTU21D;52883;51.094;5.880;2022-09-21T10:21:58;21.30;118.99
66102;HTU21D;52883;51.094;5.880;2022-09-21T10:24:34;21.33;118.99
66102;HTU21D;52883;51.094;5.880;2022-09-21T10:27:10;21.62;118.99
66102;HTU21D;52883;51.094;5.880;2022-09-21T10:29:46;22.05;118.99
66102;HTU21D;52883;51.094;5.880;2022-09-21T10:34:39;22.38;118.99
66102;HTU21D;52883;51.094;5.880;2022-09-21T10:40:02;22.20;118.99
66102;HTU21D;52883;51.094;5.880;2022-09-21T10:42:41;22.13;118.99
66102;HTU21D;52883;51.094;5.880;2022-09-21T10:45:19;22.01;118.99
66102;HTU21D;52883;51.094;5.880;2022-09-21T10:47:46;22.12;118.99
66102;HTU21D;52883;51.094;5.880;2022-09-21T10:50:34;22.61;118.99
66102;HTU21D;52883;51.094;5.880;2022-09-21T10:55:43;22.17;118.62
66102;HTU21D;52883;51.094;5.880;2022-09-21T10:58:11;22.14;115.55
66102;HTU21D;52883;51.094;5.880;2022-09-21T11:00:46;22.09;111.60
66102;HTU21D;52883;51.094;5.880;2022-09-21T11:03:45;21.78;114.13
66102;HTU21D;52883;51.094;5.880;2022-09-21T11:06:30;21.70;118.99
66102;HTU21D;52883;51.094;5.880;2022-09-21T11:09:04;22.02;105.02
66102;HTU21D;52883;51.094;5.880;2022-09-21T11:11:55;21.92;116.67
66102;HTU21D;52883;51.094;5.880;2022-09-21T11:14:34;22.05;118.25
66102;HTU21D;52883;51.094;5.880;2022-09-21T11:17:15;21.95;115.52
66102;HTU21D;52883;51.094;5.880;2022-09-21T11:19:51;21.37;109.95
66102;HTU21D;52883;51.094;5.880;2022-09-21T11:22:34;20.76;113.21
66102;HTU21D;52883;51.094;5.880;2022-09-21T11:27:56;20.45;114.43
66102;HTU21D;52883;51.094;5.880;2022-09-21T11:30:24;20.60;117.88
66102;HTU21D;52883;51.094;5.880;2022-09-21T11:41:19;20.81;99.74
66102;HTU21D;52883;51.094;5.880;2022-09-21T11:46:47;21.15;97.97
66102;HTU21D;52883;51.094;5.880;2022-09-21T11:49:33;21.57;117.25
66102;HTU21D;52883;51.094;5.880;2022-09-21T11:52:15;22.32;95.51
66102;HTU21D;52883;51.094;5.880;2022-09-21T11:57:29;22.85;115.46
66102;HTU21D;52883;51.094;5.880;2022-09-21T12:00:25;23.25;108.87
66102;HTU21D;52883;51.094;5.880;2022-09-21T12:10:56;24.31;97.55
66102;HTU21D;52883;51.094;5.880;2022-09-21T12:13:37;24.06;86.47
66102;HTU21D;52883;51.094;5.880;2022-09-21T12:16:13;24.26;91.15
66102;HTU21D;52883;51.094;5.880;2022-09-21T12:21:36;24.62;62.59
66102;HTU21D;52883;51.094;5.880;2022-09-21T12:27:10;24.74;69.97
66102;HTU21D;52883;51.094;5.880;2022-09-21T12:29:42;24.49;57.47
66102;HTU21D;52883;51.094;5.880;2022-09-21T12:35:35;23.39;65.98
66102;HTU21D;52883;51.094;5.880;2022-09-21T12:41:17;23.15;72.42
66102;HTU21D;52883;51.094;5.880;2022-09-21T12:43:48;22.54;77.93
66102;HTU21D;52883;51.094;5.880;2022-09-21T12:46:18;22.49;82.41
66102;HTU21D;52883;51.094;5.880;2022-09-21T12:48:44;22.67;78.85
66102;HTU21D;52883;51.094;5.880;2022-09-21T12:51:26;22.67;80.30
66102;HTU21D;52883;51.094;5.880;2022-09-21T12:54:05;22.21;80.36
66102;HTU21D;52883;51.094;5.880;2022-09-21T13:05:16;20.49;85.98
66102;HTU21D;52883;51.094;5.880;2022-09-21T13:13:24;20.50;83.98
66102;HTU21D;52883;51.094;5.880;2022-09-21T13:15:51;20.48;84.56
66102;HTU21D;52883;51.094;5.880;2022-09-21T13:18:28;20.33;87.56
66102;HTU21D;52883;51.094;5.880;2022-09-21T13:20:57;20.30;89.86
66102;HTU21D;52883;51.094;5.880;2022-09-21T13:23:36;20.28;90.28
66102;HTU21D;52883;51.094;5.880;2022-09-21T13:26:09;20.30;90.37
66102;HTU21D;52883;51.094;5.880;2022-09-21T13:28:58;20.29;92.79
66102;HTU21D;52883;51.094;5.880;2022-09-21T13:34:34;19.90;93.57
66102;HTU21D;52883;51.094;5.880;2022-09-21T13:44:53;20.11;91.60
66102;HTU21D;52883;51.094;5.880;2022-09-21T13:47:31;20.13;103.72
66102;HTU21D;52883;51.094;5.880;2022-09-21T13:50:00;20.35;104.59
66102;HTU21D;52883;51.094;5.880;2022-09-21T13:52:43;20.37;103.65
66102;HTU21D;52883;51.094;5.880;2022-09-21T13:55:49;20.16;101.83
66102;HTU21D;52883;51.094;5.880;2022-09-21T13:58:30;19.75;95.97
66102;HTU21D;52883;51.094;5.880;2022-09-21T14:01:02;19.24;99.51
66102;HTU21D;52883;51.094;5.880;2022-09-21T14:03:35;19.14;104.70
66102;HTU21D;52883;51.094;5.880;2022-09-21T14:06:17;19.28;77.29
66102;HTU21D;52883;51.094;5.880;2022-09-21T14:12:11;20.22;93.14
66102;HTU21D;52883;51.094;5.880;2022-09-21T14:14:42;20.44;92.26
66102;HTU21D;52883;51.094;5.880;2022-09-21T14:17:33;20.81;94.52
66102;HTU21D;52883;51.094;5.880;2022-09-21T14:19:59;21.03;88.83
66102;HTU21D;52883;51.094;5.880;2022-09-21T14:25:29;20.95;93.23
66102;HTU21D;52883;51.094;5.880;2022-09-21T14:28:09;20.94;84.80
66102;HTU21D;52883;51.094;5.880;2022-09-21T14:30:38;20.70;81.16
66102;HTU21D;52883;51.094;5.880;2022-09-21T14:33:56;20.44;86.73
66102;HTU21D;52883;51.094;5.880;2022-09-21T14:36:00;20.06;86.96
66102;HTU21D;52883;51.094;5.880;2022-09-21T14:38:42;19.70;86.75
66102;HTU21D;52883;51.094;5.880;2022-09-21T14:41:16;19.43;87.85
66102;HTU21D;52883;51.094;5.880;2022-09-21T14:43:50;19.21;86.22
66102;HTU21D;52883;51.094;5.880;2022-09-21T14:57:31;17.88;91.70
66102;HTU21D;52883;51.094;5.880;2022-09-21T15:00:03;17.77;92.67
66102;HTU21D;52883;51.094;5.880;2022-09-21T15:02:35;17.69;93.86
66102;HTU21D;52883;51.094;5.880;2022-09-21T15:05:16;17.62;95.71
66102;HTU21D;52883;51.094;5.880;2022-09-21T15:18:48;17.32;94.11
66102;HTU21D;52883;51.094;5.880;2022-09-21T15:21:28;17.32;95.43
66102;HTU21D;52883;51.094;5.880;2022-09-21T15:23:55;17.28;96.10
66102;HTU21D;52883;51.094;5.880;2022-09-21T15:26:28;17.26;95.66
66102;HTU21D;52883;51.094;5.880;2022-09-21T15:29:02;17.21;96.84
66102;HTU21D;52883;51.094;5.880;2022-09-21T15:31:36;17.15;97.32
66102;HTU21D;52883;51.094;5.880;2022-09-21T15:34:05;17.11;94.49
66102;HTU21D;52883;51.094;5.880;2022-09-21T15:36:38;17.08;95.95
66102;HTU21D;52883;51.094;5.880;2022-09-21T15:39:05;17.02;98.23
66102;HTU21D;52883;51.094;5.880;2022-09-21T15:41:45;16.98;98.26
66102;HTU21D;52883;51.094;5.880;2022-09-21T15:44:22;16.96;99.47
66102;HTU21D;52883;51.094;5.880;2022-09-21T15:46:54;16.92;100.14
66102;HTU21D;52883;51.094;5.880;2022-09-21T15:49:26;16.87;101.21
66102;HTU21D;52883;51.094;5.880;2022-09-21T15:51:59;16.84;102.10
66102;HTU21D;52883;51.094;5.880;2022-09-21T15:54:36;16.71;102.90
66102;HTU21D;52883;51.094;5.880;2022-09-21T15:57:20;16.63;101.17
66102;HTU21D;52883;51.094;5.880;2022-09-21T15:59:48;16.57;103.16
66102;HTU21D;52883;51.094;5.880;2022-09-21T16:02:21;16.50;103.02
66102;HTU21D;52883;51.094;5.880;2022-09-21T16:04:48;16.45;100.11
66102;HTU21D;52883;51.094;5.880;2022-09-21T16:07:34;16.36;102.67
66102;HTU21D;52883;51.094;5.880;2022-09-21T16:10:01;16.28;103.42
66102;HTU21D;52883;51.094;5.880;2022-09-21T16:12:36;16.17;102.79
66102;HTU21D;52883;51.094;5.880;2022-09-21T16:17:55;16.02;106.92
66102;HTU21D;52883;51.094;5.880;2022-09-21T16:20:24;15.97;109.35
66102;HTU21D;52883;51.094;5.880;2022-09-21T16:23:15;15.88;109.43
66102;HTU21D;52883;51.094;5.880;2022-09-21T16:25:41;15.80;111.07
66102;HTU21D;52883;51.094;5.880;2022-09-21T16:30:43;15.63;112.31
66102;HTU21D;52883;51.094;5.880;2022-09-21T16:38:51;15.43;113.31
66102;HTU21D;52883;51.094;5.880;2022-09-21T16:41:33;15.29;114.57
66102;HTU21D;52883;51.094;5.880;2022-09-21T16:43:59;15.11;115.38
66102;HTU21D;52883;51.094;5.880;2022-09-21T16:46:26;15.02;115.87
66102;HTU21D;52883;51.094;5.880;2022-09-21T16:48:52;14.93;116.65
66102;HTU21D;52883;51.094;5.880;2022-09-21T16:51:19;14.83;117.17
66102;HTU21D;52883;51.094;5.880;2022-09-21T16:53:50;14.70;118.33
66102;HTU21D;52883;51.094;5.880;2022-09-21T16:56:16;14.58;118.63
66102;HTU21D;52883;51.094;5.880;2022-09-21T16:58:42;14.54;118.99
66102;HTU21D;52883;51.094;5.880;2022-09-21T17:01:15;14.51;118.99
66102;HTU21D;52883;51.094;5.880;2022-09-21T17:03:46;14.42;118.99
66102;HTU21D;52883;51.094;5.880;2022-09-21T17:06:21;14.34;118.99
66102;HTU21D;52883;51.094;5.880;2022-09-21T17:08:48;14.25;118.99
66102;HTU21D;52883;51.094;5.880;2022-09-21T17:11:15;14.20;118.99
66102;HTU21D;52883;51.094;5.880;2022-09-21T17:13:50;14.05;118.99
66102;HTU21D;52883;51.094;5.880;2022-09-21T17:16:18;13.88;118.99
66102;HTU21D;52883;51.094;5.880;2022-09-21T17:18:45;13.68;118.99
66102;HTU21D;52883;51.094;5.880;2022-09-21T17:21:12;13.48;118.99
66102;HTU21D;52883;51.094;5.880;2022-09-21T17:23:38;13.30;118.99
66102;HTU21D;52883;51.094;5.880;2022-09-21T17:26:12;13.15;118.99
66102;HTU21D;52883;51.094;5.880;2022-09-21T17:28:40;12.97;118.99
66102;HTU21D;52883;51.094;5.880;2022-09-21T17:31:09;12.76;118.99
66102;HTU21D;52883;51.094;5.880;2022-09-21T17:33:35;12.61;118.99
66102;HTU21D;52883;51.094;5.880;2022-09-21T17:36:00;12.42;118.99
66102;HTU21D;52883;51.094;5.880;2022-09-21T17:38:26;12.32;118.99
66102;HTU21D;52883;51.094;5.880;2022-09-21T17:40:52;12.23;118.99
66102;HTU21D;52883;51.094;5.880;2022-09-21T17:46:08;12.07;118.99
66102;HTU21D;52883;51.094;5.880;2022-09-21T17:48:38;11.88;118.99
66102;HTU21D;52883;51.094;5.880;2022-09-21T17:51:05;11.74;118.99
66102;HTU21D;52883;51.094;5.880;2022-09-21T17:53:31;11.64;118.99
66102;HTU21D;52883;51.094;5.880;2022-09-21T17:58:57;11.53;118.99
66102;HTU21D;52883;51.094;5.880;2022-09-21T18:01:43;11.41;118.99
66102;HTU21D;52883;51.094;5.880;2022-09-21T18:04:09;11.30;118.99
66102;HTU21D;52883;51.094;5.880;2022-09-21T18:06:38;11.17;118.99
66102;HTU21D;52883;51.094;5.880;2022-09-21T18:09:04;11.16;118.99
66102;HTU21D;52883;51.094;5.880;2022-09-21T18:21:56;10.81;118.99
66102;HTU21D;52883;51.094;5.880;2022-09-21T18:24:27;10.69;118.99
66102;HTU21D;52883;51.094;5.880;2022-09-21T18:26:57;10.59;118.99
66102;HTU21D;52883;51.094;5.880;2022-09-21T18:29:33;10.43;118.99
66102;HTU21D;52883;51.094;5.880;2022-09-21T18:32:34;10.23;118.99
66102;HTU21D;52883;51.094;5.880;2022-09-21T18:37:56;10.22;118.99
66102;HTU21D;52883;51.094;5.880;2022-09-21T18:43:28;9.92;118.99
66102;HTU21D;52883;51.094;5.880;2022-09-21T18:46:02;9.77;118.99
66102;HTU21D;52883;51.094;5.880;2022-09-21T18:51:18;9.54;118.99
66102;HTU21D;52883;51.094;5.880;2022-09-21T18:53:49;9.45;118.99
66102;HTU21D;52883;51.094;5.880;2022-09-21T18:56:17;9.37;118.99
66102;HTU21D;52883;51.094;5.880;2022-09-21T18:58:43;9.39;118.99
66102;HTU21D;52883;51.094;5.880;2022-09-21T19:01:13;9.33;118.99
66102;HTU21D;52883;51.094;5.880;2022-09-21T19:03:40;9.27;118.99
66102;HTU21D;52883;51.094;5.880;2022-09-21T19:06:23;9.27;118.99